Time;durP1;ratioP1;P1;durP2;ratioP2;P2;SDS_P1;SDS_P2;PMS_P1;PMS_P2;Temp;Humidity;BMP_temperature;BMP_pressure;BME280_temperature;BME280_humidity;BME280_pressure;Samples;Min_cycle;Max_cycle;Signal;HPM_P1;HPM_P2
2024/03/09 00:00:34;;;;;;;30.50;24.50;;;6.50;95.80;;;;;;5092978;28;20357;-77
2024/03/09 00:03:05;;;;;;;31.90;24.17;;;6.40;96.10;;;;;;5082215;28;20235;-78
2024/03/09 00:05:32;;;;;;;30.00;23.73;;;6.40;96.20;;;;;;5105899;28;20227;-77
2024/03/09 00:08:01;;;;;;;31.83;24.38;;;6.40;96.20;;;;;;5091418;28;20250;-77
2024/03/09 00:10:33;;;;;;;29.90;24.30;;;6.30;96.30;;;;;;5093573;28;20300;-77
2024/03/09 00:13:00;;;;;;;35.75;23.75;;;6.40;96.40;;;;;;5096210;28;20276;-77
2024/03/09 00:15:31;;;;;;;32.25;24.80;;;6.30;96.50;;;;;;5097206;28;20223;-76
2024/03/09 00:17:58;;;;;;;35.90;22.92;;;6.30;96.50;;;;;;5096700;28;20288;-76
2024/03/09 00:20:32;;;;;;;33.22;24.65;;;6.30;96.80;;;;;;5096352;28;20225;-76
2024/03/09 00:23:00;;;;;;;31.65;24.58;;;6.20;96.80;;;;;;5095461;28;20227;-76
2024/03/09 00:25:28;;;;;;;33.20;24.58;;;6.20;97.00;;;;;;5095004;28;20224;-77
2024/03/09 00:27:58;;;;;;;37.25;25.38;;;6.30;97.10;;;;;;5096698;28;20541;-76
2024/03/09 00:30:29;;;;;;;31.63;23.92;;;6.20;97.10;;;;;;5095369;28;20251;-76
2024/03/09 00:32:59;;;;;;;34.80;25.00;;;6.20;97.10;;;;;;5097838;28;20247;-78
2024/03/09 00:35:27;;;;;;;31.20;23.40;;;6.30;97.50;;;;;;5096500;28;20226;-76
2024/03/09 00:37:55;;;;;;;34.85;25.00;;;6.30;97.30;;;;;;5096608;28;20215;-76
2024/03/09 00:40:24;;;;;;;32.78;24.95;;;6.30;97.30;;;;;;5095662;28;20239;-76
2024/03/09 00:42:52;;;;;;;31.52;24.80;;;6.20;97.70;;;;;;5096428;28;20284;-76
2024/03/09 00:45:21;;;;;;;34.83;25.77;;;6.20;97.50;;;;;;5096314;28;20660;-76
2024/03/09 00:47:48;;;;;;;33.05;25.88;;;6.20;97.60;;;;;;5096340;28;20306;-76
2024/03/09 00:50:21;;;;;;;31.55;24.63;;;6.20;97.60;;;;;;5095427;28;20230;-76
2024/03/09 00:52:48;;;;;;;32.42;26.17;;;6.20;97.80;;;;;;5095986;28;20268;-76
2024/03/09 00:55:15;;;;;;;34.70;26.25;;;6.20;97.80;;;;;;5094741;28;20223;-76
2024/03/09 00:57:50;;;;;;;36.50;26.73;;;6.10;97.90;;;;;;5096291;28;20223;-76
2024/03/09 01:00:24;;;;;;;34.22;25.35;;;6.20;98.10;;;;;;5095074;28;20222;-76
2024/03/09 01:03:07;;;;;;;35.13;25.55;;;6.20;98.10;;;;;;5095320;28;20227;-77
2024/03/09 01:05:34;;;;;;;35.53;25.77;;;6.20;98.10;;;;;;5094081;28;20227;-76
2024/03/09 01:08:05;;;;;;;40.25;29.27;;;6.20;98.10;;;;;;5095786;28;20227;-76
2024/03/09 01:10:38;;;;;;;37.60;27.55;;;6.20;98.30;;;;;;5088375;28;20220;-76
2024/03/09 01:13:09;;;;;;;33.67;28.00;;;6.10;98.40;;;;;;5076146;28;20228;-76
2024/03/09 01:15:36;;;;;;;34.30;26.75;;;6.20;98.50;;;;;;5075671;28;20219;-77
2024/03/09 01:18:05;;;;;;;32.85;26.23;;;6.20;98.50;;;;;;5075695;28;20224;-76
2024/03/09 01:20:35;;;;;;;38.15;28.83;;;6.20;98.60;;;;;;5074826;28;20220;-76
2024/03/09 01:23:03;;;;;;;37.97;28.23;;;6.20;98.60;;;;;;5075082;28;20231;-76
2024/03/09 01:25:31;;;;;;;35.25;25.83;;;6.20;98.70;;;;;;5074327;28;20224;-76
2024/03/09 01:27:58;;;;;;;38.70;28.13;;;6.20;98.80;;;;;;5075101;28;20223;-76
2024/03/09 01:30:26;;;;;;;34.90;26.50;;;6.10;98.80;;;;;;5074438;28;20618;-76
2024/03/09 01:32:53;;;;;;;40.45;30.20;;;6.20;99.00;;;;;;5074830;28;20232;-76
2024/03/09 01:35:23;;;;;;;35.97;27.15;;;6.10;99.00;;;;;;5074972;28;20215;-76
2024/03/09 01:37:52;;;;;;;44.03;30.05;;;6.10;99.10;;;;;;5074896;28;20224;-76
2024/03/09 01:40:19;;;;;;;37.78;25.80;;;6.10;99.20;;;;;;5074987;28;20323;-76
2024/03/09 01:42:46;;;;;;;36.35;26.88;;;6.20;99.10;;;;;;5074814;28;20224;-76
2024/03/09 01:45:15;;;;;;;39.55;26.92;;;6.20;99.10;;;;;;5074655;28;20232;-76
2024/03/09 01:47:42;;;;;;;39.28;28.15;;;6.20;99.30;;;;;;5085089;28;20559;-76
2024/03/09 01:50:12;;;;;;;38.55;27.27;;;6.10;99.10;;;;;;5094620;28;20739;-76
2024/03/09 01:52:40;;;;;;;40.60;29.58;;;6.10;99.20;;;;;;5094494;28;20226;-76
2024/03/09 01:55:10;;;;;;;45.33;29.80;;;6.10;99.40;;;;;;5095141;28;20284;-76
2024/03/09 01:57:38;;;;;;;42.38;29.40;;;6.10;99.40;;;;;;5095347;28;20255;-76
2024/03/09 02:00:09;;;;;;;39.50;28.35;;;6.00;99.50;;;;;;5084080;28;20219;-76
2024/03/09 02:02:37;;;;;;;42.53;31.00;;;6.10;99.60;;;;;;5093551;28;20227;-76
2024/03/09 02:05:10;;;;;;;40.63;27.20;;;6.00;99.50;;;;;;5094061;28;20234;-76
2024/03/09 02:07:40;;;;;;;40.55;28.00;;;6.00;99.60;;;;;;5093845;28;20310;-76
2024/03/09 02:10:14;;;;;;;42.97;29.55;;;5.90;99.70;;;;;;5094583;28;20310;-76
2024/03/09 02:12:42;;;;;;;42.47;30.45;;;5.90;99.80;;;;;;5093081;28;21138;-76
2024/03/09 02:15:12;;;;;;;38.30;29.60;;;5.90;99.90;;;;;;5094320;28;20216;-76
2024/03/09 02:17:42;;;;;;;41.05;29.65;;;5.90;99.90;;;;;;5093601;28;20247;-76
2024/03/09 02:20:12;;;;;;;36.65;29.08;;;5.90;99.90;;;;;;5093879;28;20276;-76
2024/03/09 02:22:46;;;;;;;41.85;30.80;;;5.90;99.90;;;;;;5093333;28;20223;-76
2024/03/09 02:25:18;;;;;;;43.65;29.08;;;5.90;99.90;;;;;;5093626;28;20240;-76
2024/03/09 02:27:45;;;;;;;39.95;29.65;;;5.90;99.90;;;;;;5094007;28;20692;-76
2024/03/09 02:30:16;;;;;;;39.80;29.13;;;5.90;99.90;;;;;;5093695;28;20229;-76
2024/03/09 02:32:43;;;;;;;42.53;30.73;;;5.90;99.90;;;;;;5093238;28;20314;-76
2024/03/09 02:35:10;;;;;;;43.53;29.20;;;5.90;99.90;;;;;;5094117;28;20322;-76
2024/03/09 02:37:37;;;;;;;37.97;28.15;;;5.80;99.90;;;;;;5094116;28;20227;-76
2024/03/09 02:40:07;;;;;;;42.58;31.00;;;5.80;99.90;;;;;;5094427;28;20306;-76
2024/03/09 02:42:38;;;;;;;42.97;29.00;;;5.90;99.90;;;;;;5093213;28;20231;-76
2024/03/09 02:45:07;;;;;;;42.80;31.55;;;5.90;99.90;;;;;;5094153;28;20298;-76
2024/03/09 02:47:34;;;;;;;43.53;30.65;;;5.90;99.90;;;;;;5092412;28;20230;-76
2024/03/09 02:50:01;;;;;;;42.05;31.80;;;5.90;99.90;;;;;;5093634;28;20215;-76
2024/03/09 02:52:28;;;;;;;38.70;31.30;;;5.90;99.90;;;;;;5092538;28;20219;-75
2024/03/09 02:54:56;;;;;;;44.70;32.92;;;5.90;99.90;;;;;;5093609;28;20570;-76
2024/03/09 02:57:23;;;;;;;42.58;31.77;;;5.90;99.90;;;;;;5093914;28;20231;-77
2024/03/09 02:59:51;;;;;;;43.10;32.63;;;5.90;99.90;;;;;;5083240;28;20219;-77
2024/03/09 03:05:00;;;;;;;45.40;32.88;;;6.00;99.90;;;;;;5092272;28;20215;-77
2024/03/09 03:07:28;;;;;;;39.60;28.70;;;5.90;99.90;;;;;;5093512;28;20227;-77
2024/03/09 03:09:57;;;;;;;48.10;30.42;;;5.90;99.90;;;;;;5083595;28;20691;-77
2024/03/09 03:12:26;;;;;;;41.25;31.30;;;5.90;99.90;;;;;;5079384;28;20669;-77
2024/03/09 03:14:57;;;;;;;41.85;32.22;;;5.90;99.90;;;;;;5073364;28;20232;-77
2024/03/09 03:17:28;;;;;;;42.78;31.48;;;5.90;99.90;;;;;;5073552;28;20231;-77
2024/03/09 03:19:55;;;;;;;39.65;31.30;;;5.90;99.90;;;;;;5072634;28;20303;-77
2024/03/09 03:22:25;;;;;;;45.67;33.65;;;5.80;99.90;;;;;;5073093;28;20282;-77
2024/03/09 03:24:52;;;;;;;41.63;31.98;;;5.70;99.90;;;;;;5083646;28;20266;-77
2024/03/09 03:27:19;;;;;;;42.38;30.80;;;5.70;99.90;;;;;;5084284;28;20278;-77
2024/03/09 03:29:48;;;;;;;46.35;32.25;;;5.70;99.90;;;;;;5070878;28;20230;-78
2024/03/09 03:32:16;;;;;;;41.92;32.28;;;5.60;99.90;;;;;;5073301;28;20224;-77
2024/03/09 03:34:44;;;;;;;45.08;32.08;;;5.60;99.90;;;;;;5072204;28;20231;-78
2024/03/09 03:37:12;;;;;;;42.45;32.60;;;5.60;99.90;;;;;;5072595;28;20219;-77
2024/03/09 03:39:40;;;;;;;46.75;32.13;;;5.50;99.90;;;;;;5072816;28;20228;-77
2024/03/09 03:42:08;;;;;;;49.38;31.83;;;5.50;99.90;;;;;;5062809;28;20251;-77
2024/03/09 03:44:35;;;;;;;40.28;29.60;;;5.50;99.90;;;;;;5073812;28;20240;-77
2024/03/09 03:47:02;;;;;;;45.22;31.52;;;5.50;99.90;;;;;;5076705;28;20228;-77
2024/03/09 03:49:31;;;;;;;45.85;32.05;;;5.40;99.90;;;;;;5077274;28;20314;-77
2024/03/09 03:51:58;;;;;;;45.30;31.17;;;5.40;99.90;;;;;;5076437;28;20531;-78
2024/03/09 03:54:25;;;;;;;45.65;33.47;;;5.40;99.90;;;;;;5076730;28;20246;-77
2024/03/09 03:56:55;;;;;;;43.55;30.90;;;5.30;99.90;;;;;;5076694;28;20232;-77
2024/03/09 03:59:34;;;;;;;51.20;31.73;;;5.30;99.90;;;;;;5076534;28;20219;-78
2024/03/09 04:02:01;;;;;;;48.13;32.17;;;5.30;99.90;;;;;;5076585;28;20227;-77
2024/03/09 04:04:30;;;;;;;46.33;33.17;;;5.30;99.90;;;;;;5076230;28;20232;-77
2024/03/09 04:06:59;;;;;;;44.53;30.83;;;5.20;99.90;;;;;;5076034;28;20281;-77
2024/03/09 04:09:26;;;;;;;46.67;34.22;;;5.20;99.90;;;;;;5077045;28;20236;-77
2024/03/09 04:11:57;;;;;;;49.20;33.45;;;5.20;99.90;;;;;;5075706;28;20220;-77
2024/03/09 04:14:26;;;;;;;57.58;35.90;;;5.20;99.90;;;;;;5068026;28;20243;-77
2024/03/09 04:16:57;;;;;;;43.53;32.50;;;5.10;99.90;;;;;;5081932;28;20222;-77
2024/03/09 04:19:24;;;;;;;45.65;33.78;;;5.10;99.90;;;;;;5076316;28;20288;-78
2024/03/09 04:21:51;;;;;;;49.28;31.60;;;5.00;99.90;;;;;;5076673;28;20238;-77
2024/03/09 04:24:20;;;;;;;47.92;33.03;;;5.00;99.90;;;;;;5075883;28;20323;-77
2024/03/09 04:26:48;;;;;;;46.20;32.25;;;4.90;99.90;;;;;;5076487;28;20235;-77
2024/03/09 04:29:15;;;;;;;51.05;34.20;;;4.90;99.90;;;;;;5075597;28;20231;-77
2024/03/09 04:31:44;;;;;;;48.25;32.83;;;4.90;99.90;;;;;;5076817;28;20220;-77
2024/03/09 04:34:12;;;;;;;46.15;33.75;;;4.80;99.90;;;;;;5075821;28;20223;-77
2024/03/09 04:36:40;;;;;;;49.10;33.13;;;4.80;99.90;;;;;;5075952;28;20216;-77
2024/03/09 04:39:09;;;;;;;43.72;30.90;;;4.90;99.90;;;;;;5076124;28;20223;-77
2024/03/09 04:41:38;;;;;;;47.35;33.03;;;4.80;99.90;;;;;;5076615;28;20295;-77
2024/03/09 04:44:05;;;;;;;48.83;35.10;;;4.80;99.90;;;;;;5075573;28;20228;-77
2024/03/09 04:46:36;;;;;;;49.05;33.92;;;4.80;99.90;;;;;;5076575;28;20308;-77
2024/03/09 04:49:03;;;;;;;49.03;33.03;;;4.80;99.90;;;;;;5075429;28;20248;-77
2024/03/09 04:51:30;;;;;;;48.60;32.55;;;4.80;99.90;;;;;;5076251;28;20220;-77
2024/03/09 04:54:01;;;;;;;47.15;33.75;;;4.80;99.90;;;;;;5075387;28;20240;-78
2024/03/09 04:56:35;;;;;;;49.08;33.40;;;4.80;99.90;;;;;;5075899;28;20219;-77
2024/03/09 04:59:03;;;;;;;48.25;32.63;;;4.70;99.90;;;;;;5075606;28;20220;-77
2024/03/09 05:01:32;;;;;;;51.63;35.20;;;4.80;99.90;;;;;;5076224;28;20219;-77
2024/03/09 05:03:59;;;;;;;52.35;36.22;;;4.80;99.90;;;;;;5076259;28;20226;-77
2024/03/09 05:06:29;;;;;;;55.63;35.03;;;4.80;99.90;;;;;;5076416;28;20278;-77
2024/03/09 05:08:57;;;;;;;59.47;35.90;;;4.90;99.90;;;;;;5076250;28;20250;-77
2024/03/09 05:11:24;;;;;;;49.70;35.60;;;4.90;99.90;;;;;;5077837;28;20321;-77
2024/03/09 05:13:53;;;;;;;52.85;37.22;;;4.90;99.90;;;;;;5081033;28;20320;-77
2024/03/09 05:16:23;;;;;;;49.45;35.72;;;4.90;99.90;;;;;;5075531;28;20970;-77
2024/03/09 05:18:51;;;;;;;50.97;36.30;;;4.90;99.90;;;;;;5075010;28;20685;-77
2024/03/09 05:21:18;;;;;;;48.45;33.05;;;4.90;99.90;;;;;;5076016;28;20577;-77
2024/03/09 05:23:50;;;;;;;55.88;36.00;;;4.90;99.90;;;;;;5076522;28;20339;-77
2024/03/09 05:26:18;;;;;;;50.42;35.30;;;5.00;99.90;;;;;;5078139;28;20285;-77
2024/03/09 05:28:45;;;;;;;58.08;35.50;;;5.00;99.90;;;;;;5086453;28;20239;-78
2024/03/09 05:31:26;;;;;;;51.47;34.97;;;5.00;99.90;;;;;;5082559;28;20289;-77
2024/03/09 05:33:53;;;;;;;48.88;36.53;;;5.00;99.90;;;;;;5083263;28;20293;-77
2024/03/09 05:36:23;;;;;;;49.85;33.53;;;4.90;99.90;;;;;;5076004;28;20294;-77
2024/03/09 05:38:52;;;;;;;48.78;35.53;;;4.90;99.90;;;;;;5075348;28;20250;-77
2024/03/09 05:41:19;;;;;;;56.28;35.45;;;4.90;99.90;;;;;;5077075;28;20275;-77
2024/03/09 05:43:47;;;;;;;49.97;34.22;;;4.90;99.90;;;;;;5075392;28;20289;-77
2024/03/09 05:46:17;;;;;;;50.45;35.63;;;4.90;99.90;;;;;;5074092;28;20224;-77
2024/03/09 05:48:46;;;;;;;51.03;37.28;;;4.90;99.90;;;;;;5075185;28;20234;-77
2024/03/09 05:51:18;;;;;;;54.70;37.08;;;4.80;99.90;;;;;;5075213;28;20232;-77
2024/03/09 05:53:46;;;;;;;53.95;35.55;;;4.80;99.90;;;;;;5075751;28;20228;-77
2024/03/09 05:56:13;;;;;;;48.15;35.22;;;4.70;99.90;;;;;;5074279;28;20228;-77
2024/03/09 05:58:40;;;;;;;50.90;35.97;;;4.70;99.90;;;;;;5075303;28;20235;-77
2024/03/09 06:01:08;;;;;;;55.25;36.42;;;4.80;99.90;;;;;;5074927;28;20219;-77
2024/03/09 06:03:42;;;;;;;47.90;35.20;;;4.70;99.90;;;;;;5068404;28;20230;-77
2024/03/09 06:06:12;;;;;;;54.10;36.03;;;4.70;99.90;;;;;;5084894;28;20680;-77
2024/03/09 06:08:45;;;;;;;52.30;34.58;;;4.70;99.90;;;;;;5074133;28;20215;-77
2024/03/09 06:11:12;;;;;;;53.42;36.95;;;4.70;99.90;;;;;;5074433;28;20281;-77
2024/03/09 06:13:43;;;;;;;52.25;36.38;;;4.60;99.90;;;;;;5074492;28;20635;-77
2024/03/09 06:16:15;;;;;;;47.72;32.53;;;4.60;99.90;;;;;;5074398;28;20224;-77
2024/03/09 06:18:47;;;;;;;53.35;34.83;;;4.70;99.90;;;;;;5074868;28;20220;-77
2024/03/09 06:21:17;;;;;;;49.75;34.58;;;4.70;99.90;;;;;;5074187;28;20231;-77
2024/03/09 06:23:44;;;;;;;45.67;33.70;;;4.70;99.90;;;;;;5074936;28;20228;-77
2024/03/09 06:26:11;;;;;;;51.03;34.97;;;4.60;99.90;;;;;;5076479;28;20228;-77
2024/03/09 06:28:39;;;;;;;53.35;37.88;;;4.60;99.90;;;;;;5074511;28;20611;-77
2024/03/09 06:31:06;;;;;;;49.47;33.00;;;4.60;99.90;;;;;;5074976;28;20228;-77
2024/03/09 06:33:33;;;;;;;54.22;37.72;;;4.60;99.90;;;;;;5072627;28;20584;-77
2024/03/09 06:36:04;;;;;;;54.20;36.13;;;4.60;99.90;;;;;;5075421;28;20699;-77
2024/03/09 06:38:35;;;;;;;52.30;36.22;;;4.60;99.90;;;;;;5075381;28;20224;-77
2024/03/09 06:41:02;;;;;;;53.78;36.88;;;4.50;99.90;;;;;;5078961;28;20223;-77
2024/03/09 06:43:32;;;;;;;48.28;33.53;;;4.60;99.90;;;;;;5074985;28;20235;-77
2024/03/09 06:46:03;;;;;;;54.95;36.58;;;4.70;99.90;;;;;;5078105;28;20247;-77
2024/03/09 06:48:31;;;;;;;58.13;36.78;;;4.80;99.90;;;;;;5075706;28;20262;-77
2024/03/09 06:50:59;;;;;;;55.97;38.50;;;4.80;99.90;;;;;;5083405;28;20224;-77
2024/03/09 06:53:29;;;;;;;51.20;35.30;;;4.80;99.90;;;;;;5075558;28;20224;-77
2024/03/09 06:56:03;;;;;;;48.03;35.95;;;4.80;99.90;;;;;;5075593;28;20247;-77
2024/03/09 06:58:30;;;;;;;55.70;36.33;;;4.90;99.90;;;;;;5074756;28;20565;-77
2024/03/09 07:00:58;;;;;;;50.65;34.05;;;4.90;99.90;;;;;;5074884;28;20531;-77
2024/03/09 07:03:25;;;;;;;49.60;34.45;;;5.00;99.90;;;;;;5072460;28;20223;-78
2024/03/09 07:05:54;;;;;;;51.25;35.67;;;5.00;99.90;;;;;;5080588;28;20220;-77
2024/03/09 07:08:21;;;;;;;48.45;34.75;;;5.10;99.90;;;;;;5073872;28;20676;-78
2024/03/09 07:10:48;;;;;;;50.55;34.75;;;5.10;99.90;;;;;;5076285;28;20230;-77
2024/03/09 07:13:18;;;;;;;55.17;39.38;;;5.10;99.90;;;;;;5074215;28;20577;-77
2024/03/09 07:15:47;;;;;;;47.47;32.88;;;5.10;99.90;;;;;;5074088;28;20233;-77
2024/03/09 07:18:14;;;;;;;54.65;36.97;;;5.10;99.90;;;;;;5074367;28;20589;-77
2024/03/09 07:20:44;;;;;;;46.42;34.90;;;5.20;99.90;;;;;;5072940;28;20302;-77
2024/03/09 07:23:12;;;;;;;52.05;36.45;;;5.20;99.90;;;;;;5074030;28;20243;-77
2024/03/09 07:25:40;;;;;;;56.75;35.30;;;5.30;99.90;;;;;;5073324;28;20248;-77
2024/03/09 07:28:11;;;;;;;52.03;35.38;;;5.30;99.90;;;;;;5073343;28;20251;-77
2024/03/09 07:30:40;;;;;;;45.70;33.45;;;5.40;99.90;;;;;;5072947;28;20309;-77
2024/03/09 07:33:10;;;;;;;47.58;32.72;;;5.40;99.90;;;;;;5073747;28;20685;-77
2024/03/09 07:35:40;;;;;;;45.80;34.40;;;5.40;99.90;;;;;;5072725;28;20224;-77
2024/03/09 07:38:07;;;;;;;50.05;34.90;;;5.50;99.90;;;;;;5073573;28;20605;-78
2024/03/09 07:40:36;;;;;;;49.15;34.83;;;5.50;99.90;;;;;;5073295;28;20604;-77
2024/03/09 07:43:04;;;;;;;53.55;34.92;;;5.60;99.90;;;;;;5073770;28;20242;-77
2024/03/09 07:45:32;;;;;;;45.63;32.75;;;5.60;99.90;;;;;;5073835;28;20227;-77
2024/03/09 07:48:01;;;;;;;49.60;32.72;;;5.70;99.90;;;;;;5074873;28;20684;-77
2024/03/09 07:50:29;;;;;;;47.47;33.83;;;5.80;99.90;;;;;;5073443;28;20227;-77
2024/03/09 07:52:57;;;;;;;43.03;31.23;;;5.90;99.90;;;;;;5072864;28;20220;-77
2024/03/09 07:55:25;;;;;;;52.00;36.22;;;6.00;99.90;;;;;;5076811;28;20220;-78
2024/03/09 07:57:54;;;;;;;46.20;33.33;;;6.10;99.90;;;;;;5084712;28;20216;-78
2024/03/09 08:00:22;;;;;;;46.58;32.25;;;6.20;99.90;;;;;;5084807;28;20291;-78
2024/03/09 08:02:51;;;;;;;46.95;32.67;;;6.20;99.90;;;;;;5079700;28;20681;-77
2024/03/09 08:05:23;;;;;;;45.85;31.25;;;6.20;99.90;;;;;;5073582;28;20216;-78
2024/03/09 08:07:54;;;;;;;45.03;31.50;;;6.40;99.90;;;;;;5063920;28;20227;-77
2024/03/09 08:10:23;;;;;;;45.80;32.60;;;6.40;99.90;;;;;;5064079;28;20281;-78
2024/03/09 08:12:53;;;;;;;43.85;32.25;;;6.50;99.90;;;;;;5072390;28;20232;-77
2024/03/09 08:15:20;;;;;;;44.83;33.45;;;6.60;99.90;;;;;;5067839;28;20219;-77
2024/03/09 08:17:48;;;;;;;44.88;32.17;;;6.70;99.90;;;;;;5081746;28;20287;-77
2024/03/09 08:20:15;;;;;;;47.42;33.90;;;6.70;99.90;;;;;;5072742;28;20526;-77
2024/03/09 08:22:49;;;;;;;45.30;31.45;;;6.80;99.90;;;;;;5071400;28;20564;-77
2024/03/09 08:25:18;;;;;;;48.35;34.33;;;6.80;99.90;;;;;;5071685;28;20236;-77
2024/03/09 08:27:46;;;;;;;43.28;32.25;;;6.80;99.90;;;;;;5071927;28;20315;-77
2024/03/09 08:30:15;;;;;;;47.50;32.78;;;6.90;99.90;;;;;;5072413;28;20224;-76
2024/03/09 08:32:44;;;;;;;44.13;32.20;;;7.00;99.90;;;;;;5074674;28;20227;-77
2024/03/09 08:35:11;;;;;;;42.72;32.25;;;7.10;99.90;;;;;;5074791;28;20251;-77
2024/03/09 08:37:41;;;;;;;42.28;30.35;;;7.30;99.90;;;;;;5073305;28;20220;-77
2024/03/09 08:40:14;;;;;;;43.22;31.25;;;7.40;99.90;;;;;;5082869;28;20667;-77
2024/03/09 08:42:41;;;;;;;40.85;30.70;;;7.40;99.90;;;;;;5075575;28;20227;-78
2024/03/09 08:45:09;;;;;;;38.88;29.80;;;7.40;99.90;;;;;;5076154;28;20310;-77
2024/03/09 08:47:36;;;;;;;39.92;30.50;;;7.50;99.90;;;;;;5079980;28;20357;-77
2024/03/09 08:50:04;;;;;;;41.03;31.08;;;7.50;99.90;;;;;;5075501;28;20247;-77
2024/03/09 08:52:37;;;;;;;46.63;32.38;;;7.60;99.90;;;;;;5076166;28;20232;-77
2024/03/09 08:55:07;;;;;;;45.97;33.42;;;7.70;99.90;;;;;;5075045;28;20569;-77
2024/03/09 08:57:36;;;;;;;40.78;31.13;;;7.70;99.90;;;;;;5076002;28;20303;-77
2024/03/09 09:00:09;;;;;;;39.83;30.02;;;7.70;99.90;;;;;;5075506;28;20227;-76
2024/03/09 09:02:38;;;;;;;41.38;31.10;;;7.70;99.90;;;;;;5075358;28;20688;-77
2024/03/09 09:05:11;;;;;;;38.42;29.48;;;7.80;99.90;;;;;;5074438;28;20232;-77
2024/03/09 09:07:48;;;;;;;39.97;32.03;;;7.80;99.90;;;;;;5075389;28;20232;-76
2024/03/09 09:10:17;;;;;;;42.08;29.05;;;7.80;99.90;;;;;;5066213;28;20234;-76
2024/03/09 09:13:08;;;;;;;42.13;30.05;;;7.90;99.90;;;;;;5075814;28;20227;-77
2024/03/09 09:15:35;;;;;;;41.28;31.50;;;8.00;99.90;;;;;;5075822;28;20220;-77
2024/03/09 09:18:02;;;;;;;39.70;31.65;;;8.10;99.90;;;;;;5074950;28;20220;-77
2024/03/09 09:20:29;;;;;;;47.83;31.65;;;8.20;99.90;;;;;;5075181;28;20230;-77
2024/03/09 09:22:58;;;;;;;42.65;30.48;;;8.30;99.90;;;;;;5073653;28;20227;-77
2024/03/09 09:25:28;;;;;;;42.92;32.17;;;8.30;99.90;;;;;;5079792;28;20234;-76
2024/03/09 09:27:57;;;;;;;36.88;29.02;;;8.30;99.90;;;;;;5073767;28;20255;-77
2024/03/09 09:30:26;;;;;;;42.67;30.52;;;8.30;99.90;;;;;;5074725;28;20234;-76
2024/03/09 09:32:53;;;;;;;45.08;31.85;;;8.30;99.90;;;;;;5074311;28;20238;-76
2024/03/09 09:35:20;;;;;;;40.22;30.02;;;8.40;99.90;;;;;;5074805;28;20234;-75
2024/03/09 09:37:47;;;;;;;40.47;30.33;;;8.40;99.90;;;;;;5074161;28;20224;-77
2024/03/09 09:40:15;;;;;;;39.22;30.80;;;8.40;99.90;;;;;;5074789;28;20247;-76
2024/03/09 09:42:45;;;;;;;39.28;30.50;;;8.40;99.90;;;;;;5074500;28;20228;-76
2024/03/09 09:45:22;;;;;;;42.00;31.98;;;8.50;99.90;;;;;;5073461;28;20239;-76
2024/03/09 09:47:50;;;;;;;40.78;30.20;;;8.60;99.90;;;;;;5074129;28;20266;-76
2024/03/09 09:50:24;;;;;;;43.17;30.67;;;8.60;99.90;;;;;;5073625;28;20219;-76
2024/03/09 09:52:57;;;;;;;38.95;29.67;;;8.60;99.90;;;;;;5063683;28;20232;-76
2024/03/09 09:55:24;;;;;;;40.72;29.38;;;8.70;99.90;;;;;;5074268;28;20277;-76
2024/03/09 09:57:53;;;;;;;40.03;31.70;;;8.80;99.90;;;;;;5077764;28;20224;-76
2024/03/09 10:00:23;;;;;;;38.63;29.55;;;8.90;99.90;;;;;;5075245;28;20615;-76
2024/03/09 10:02:55;;;;;;;39.13;30.35;;;9.00;99.90;;;;;;5073833;28;20224;-76
2024/03/09 10:05:24;;;;;;;40.65;30.42;;;9.10;99.90;;;;;;5073631;28;20302;-76
2024/03/09 10:07:59;;;;;;;41.92;32.10;;;9.20;99.90;;;;;;5074063;28;20228;-76
2024/03/09 10:10:30;;;;;;;44.17;32.47;;;9.30;99.90;;;;;;5073573;28;20223;-77
2024/03/09 10:13:11;;;;;;;37.38;28.70;;;9.40;99.90;;;;;;5074519;28;20224;-77
2024/03/09 10:15:43;;;;;;;35.25;28.60;;;9.40;99.90;;;;;;5073255;28;20216;-76
2024/03/09 10:18:11;;;;;;;40.78;29.23;;;9.50;99.90;;;;;;5072968;28;20246;-76
2024/03/09 10:20:38;;;;;;;37.45;28.65;;;9.50;99.90;;;;;;5073086;28;20602;-77
2024/03/09 10:23:08;;;;;;;40.25;29.05;;;9.50;99.90;;;;;;5073597;28;20230;-77
2024/03/09 10:25:40;;;;;;;41.70;32.25;;;9.60;99.90;;;;;;5073261;28;20722;-77
2024/03/09 10:28:08;;;;;;;38.15;30.63;;;9.50;99.90;;;;;;5074069;28;20605;-77
2024/03/09 10:30:40;;;;;;;44.10;34.08;;;9.60;99.90;;;;;;5073067;28;20317;-77
2024/03/09 10:33:18;;;;;;;38.55;30.52;;;9.70;99.90;;;;;;5072921;28;20277;-77
2024/03/09 10:35:48;;;;;;;34.13;28.83;;;9.70;99.90;;;;;;5073986;28;20223;-77
2024/03/09 10:38:22;;;;;;;38.60;31.80;;;9.80;99.90;;;;;;5077798;28;20315;-77
2024/03/09 10:40:51;;;;;;;37.00;29.52;;;10.00;99.90;;;;;;5072959;28;20232;-77
2024/03/09 10:43:20;;;;;;;37.95;28.05;;;10.10;99.90;;;;;;5073514;28;20564;-77
2024/03/09 10:45:53;;;;;;;34.67;26.23;;;10.20;99.90;;;;;;5073257;28;20240;-77
2024/03/09 10:48:24;;;;;;;37.70;28.23;;;10.20;99.90;;;;;;5073347;28;20311;-77
2024/03/09 10:51:00;;;;;;;33.22;25.92;;;10.30;99.90;;;;;;5074063;28;20339;-77
2024/03/09 10:53:37;;;;;;;34.50;26.90;;;10.40;99.90;;;;;;5076746;28;20269;-77
2024/03/09 10:56:15;;;;;;;37.55;26.55;;;10.40;99.90;;;;;;5073107;28;20215;-77
2024/03/09 10:58:43;;;;;;;37.53;28.67;;;10.50;99.90;;;;;;5072302;28;20740;-77
2024/03/09 11:01:10;;;;;;;35.80;26.13;;;10.60;99.90;;;;;;5073327;28;20223;-77
2024/03/09 11:03:39;;;;;;;32.85;27.25;;;10.70;99.60;;;;;;5071937;28;20224;-77
2024/03/09 11:06:11;;;;;;;35.42;28.58;;;10.70;99.40;;;;;;5072748;28;20295;-77
2024/03/09 11:08:39;;;;;;;34.80;27.60;;;10.70;99.30;;;;;;5073242;28;20232;-77
2024/03/09 11:11:09;;;;;;;33.83;26.73;;;10.70;99.10;;;;;;5072307;28;20601;-77
2024/03/09 11:13:37;;;;;;;30.25;25.60;;;10.70;98.90;;;;;;5072877;28;20232;-77
2024/03/09 11:16:09;;;;;;;32.15;25.73;;;10.60;98.80;;;;;;5072764;28;20224;-77
2024/03/09 11:18:40;;;;;;;33.75;26.08;;;10.70;98.90;;;;;;5072157;28;20224;-77
2024/03/09 11:21:07;;;;;;;30.33;24.58;;;10.70;98.90;;;;;;5072145;28;20224;-77
2024/03/09 11:23:35;;;;;;;32.25;26.70;;;10.70;98.80;;;;;;5072935;28;20327;-76
2024/03/09 11:26:02;;;;;;;29.48;23.27;;;10.80;98.80;;;;;;5072354;28;20228;-78
2024/03/09 11:28:51;;;;;;;29.83;24.08;;;10.80;98.60;;;;;;5072383;28;20593;-75
2024/03/09 11:31:26;;;;;;;27.70;22.15;;;11.00;98.80;;;;;;5072650;28;20314;-77
2024/03/09 11:33:58;;;;;;;27.30;22.85;;;11.10;98.60;;;;;;5071055;28;20314;-76
2024/03/09 11:36:44;;;;;;;29.27;22.77;;;11.00;98.10;;;;;;5070955;28;20223;-78
2024/03/09 11:39:12;;;;;;;28.77;22.17;;;11.10;98.10;;;;;;5069584;28;20220;-78
2024/03/09 11:41:47;;;;;;;32.38;24.90;;;11.10;98.10;;;;;;5079225;28;20228;-76
2024/03/09 11:44:20;;;;;;;28.23;24.45;;;11.20;98.00;;;;;;5071668;28;20285;-76
2024/03/09 11:46:48;;;;;;;30.40;23.42;;;11.30;98.10;;;;;;5073173;28;20541;-77
2024/03/09 11:49:17;;;;;;;31.92;24.27;;;11.40;98.10;;;;;;5071599;28;20228;-77
2024/03/09 11:51:45;;;;;;;30.13;23.55;;;11.40;98.00;;;;;;5072562;28;20223;-76
2024/03/09 11:54:15;;;;;;;27.45;23.00;;;11.40;97.70;;;;;;5071800;28;20311;-76
2024/03/09 11:56:44;;;;;;;26.35;22.05;;;11.50;97.40;;;;;;5072454;28;20219;-77
2024/03/09 11:59:12;;;;;;;30.73;23.48;;;11.50;97.40;;;;;;5072247;28;20219;-77
2024/03/09 12:01:41;;;;;;;28.90;23.45;;;11.60;97.40;;;;;;5072466;28;20734;-77
2024/03/09 12:04:09;;;;;;;29.27;23.13;;;11.50;97.30;;;;;;5078286;28;20223;-77
2024/03/09 12:06:43;;;;;;;25.63;22.67;;;11.50;97.30;;;;;;5073591;28;20249;-77
2024/03/09 12:09:13;;;;;;;28.55;23.25;;;11.50;97.30;;;;;;5074831;28;20242;-76
2024/03/09 12:11:42;;;;;;;24.63;21.75;;;11.40;97.50;;;;;;5075511;28;20235;-77
2024/03/09 12:14:09;;;;;;;26.23;21.92;;;11.40;97.50;;;;;;5080968;28;20233;-77
2024/03/09 12:16:37;;;;;;;27.92;24.00;;;11.40;97.40;;;;;;5068447;28;20238;-77
2024/03/09 12:19:06;;;;;;;28.73;23.27;;;11.40;97.40;;;;;;5088423;28;20624;-76
2024/03/09 12:21:38;;;;;;;38.20;27.25;;;11.40;97.50;;;;;;5075626;28;20228;-77
2024/03/09 12:24:08;;;;;;;30.23;24.25;;;11.30;97.50;;;;;;5075749;28;20235;-76
2024/03/09 12:26:37;;;;;;;28.38;21.95;;;11.30;97.60;;;;;;5075740;28;20220;-77
2024/03/09 12:29:05;;;;;;;21.45;17.75;;;11.30;97.50;;;;;;5076153;28;20228;-77
2024/03/09 12:31:34;;;;;;;23.73;18.40;;;11.20;97.10;;;;;;5074846;28;20653;-77
2024/03/09 12:34:04;;;;;;;19.45;17.42;;;11.20;97.10;;;;;;5075676;28;20224;-77
2024/03/09 12:36:32;;;;;;;20.02;17.17;;;11.20;97.00;;;;;;5075263;28;20220;-77
2024/03/09 12:39:17;;;;;;;19.45;16.77;;;11.30;97.00;;;;;;5076171;28;20232;-75
2024/03/09 12:41:53;;;;;;;21.42;15.80;;;11.20;97.00;;;;;;5075301;28;20223;-76
2024/03/09 12:44:21;;;;;;;15.80;14.10;;;11.30;96.80;;;;;;5075503;28;20692;-76
2024/03/09 12:46:48;;;;;;;17.33;14.93;;;11.20;96.60;;;;;;5075066;28;20231;-76
2024/03/09 12:49:16;;;;;;;15.23;13.10;;;11.30;96.60;;;;;;5075412;28;20238;-77